Terminal Aerodrome Forecast
Issued by NWS Jackson, MS

Home | Current Version | Previous Version | Text Only | Print | Product List | Glossary On
Versions: 1 2 3 4 5 6 7 8 9 10 11 12 13 14 15 16 17 18
000
FTUS44 KJAN 022300 RRA
TAFGLH
TAF
KGLH 022351Z 0300/0324 18006KT P6SM FEW015 SCT060 BKN150
     FM030600 VRB04KT 5SM BR FEW060 SCT150
     FM031000 VRB04KT 2SM BR FEW006 SCT060 SCT200
     FM031330 28005KT P6SM FEW025 SCT250=

USA.gov is the U.S. government's official web portal to all federal, state and local government web resources and services.